עמוד ראשי
METAR-TAF:

METAR-TAF

שדות תעופה :

Pagosa Springs, קולורדו, ארצות הברית

קו רוחב: 37-17-17N, קו אורך: 107-03-18W, גובה: 2334מטר

תצפית מזג אוויר נוכחית

הדו"ח נערך לפני 40דקות, בשעה 11:15 UTC
רוח 3קשר מכיוון צפון/צפון-מערב
טמפרטורת 9 צלסיוס
לחות 87%
לחץ 1035 hPa
ראות: 16.1קילומטר
שמיים נקיים

METAR: KPSO 251115Z AUTO 33003KT 10SM CLR 09/07 A3055 RMK AO2 LTG DSNT W T00910073

זמן: 05:55 (11:55 UTC)


TAF: חסר

תצפיות ותחזיות מזג אוויר לגבי יותר מ- 4,000 שדות תעופה ברחבי העולם. דוחות METAR ו- TAF.

התחנות הזמינות מסומנות בנקודות צהובות ואדומות על גבי המפה.

העבר את העכבר לנקודה הצבעונית על מנת לראות את שם התחנה.

לאחר מכן, לחץ כדי לראות את תוכן ואת תחזיות מזג האוויר.

כדי לשנות את המפה: לחץ על הכפתורים הירוקים עם הפלוס השחור כדי להתקרב; על הכפתור הירוק עם המקף כדי להתרחק; או בחיצים הירוקים למפות סמוכות.


METAR-TAF: